sensor_id;sensor_type;location;lat;lon;timestamp;P1;durP1;ratioP1;P2;durP2;ratioP2
75209;SDS011;63796;53.136;14.882;2022-11-20T00:01:13;33.98;;;15.38;;
75209;SDS011;63796;53.136;14.882;2022-11-20T00:03:46;24.35;;;11.08;;
75209;SDS011;63796;53.136;14.882;2022-11-20T00:06:15;29.63;;;13.17;;
75209;SDS011;63796;53.136;14.882;2022-11-20T00:08:44;23.90;;;10.70;;
75209;SDS011;63796;53.136;14.882;2022-11-20T00:11:13;15.30;;;7.65;;
75209;SDS011;63796;53.136;14.882;2022-11-20T00:13:43;15.13;;;8.28;;
75209;SDS011;63796;53.136;14.882;2022-11-20T00:16:12;17.77;;;8.23;;
75209;SDS011;63796;53.136;14.882;2022-11-20T00:18:43;15.33;;;6.70;;
75209;SDS011;63796;53.136;14.882;2022-11-20T00:21:11;7.12;;;3.83;;
75209;SDS011;63796;53.136;14.882;2022-11-20T00:23:45;9.10;;;3.60;;
75209;SDS011;63796;53.136;14.882;2022-11-20T00:26:14;9.65;;;4.28;;
75209;SDS011;63796;53.136;14.882;2022-11-20T00:28:43;12.05;;;4.90;;
75209;SDS011;63796;53.136;14.882;2022-11-20T00:31:13;15.67;;;6.87;;
75209;SDS011;63796;53.136;14.882;2022-11-20T00:33:42;20.02;;;8.58;;
75209;SDS011;63796;53.136;14.882;2022-11-20T00:36:11;14.85;;;6.10;;
75209;SDS011;63796;53.136;14.882;2022-11-20T00:38:41;25.00;;;9.10;;
75209;SDS011;63796;53.136;14.882;2022-11-20T00:41:11;22.13;;;8.25;;
75209;SDS011;63796;53.136;14.882;2022-11-20T00:43:41;21.93;;;9.23;;
75209;SDS011;63796;53.136;14.882;2022-11-20T00:48:46;26.42;;;12.05;;
75209;SDS011;63796;53.136;14.882;2022-11-20T00:51:13;27.37;;;11.00;;
75209;SDS011;63796;53.136;14.882;2022-11-20T00:53:43;19.30;;;8.30;;
75209;SDS011;63796;53.136;14.882;2022-11-20T00:56:12;19.63;;;8.63;;
75209;SDS011;63796;53.136;14.882;2022-11-20T00:58:43;15.60;;;6.55;;
75209;SDS011;63796;53.136;14.882;2022-11-20T01:01:13;11.65;;;5.25;;
75209;SDS011;63796;53.136;14.882;2022-11-20T01:03:48;17.55;;;7.33;;
75209;SDS011;63796;53.136;14.882;2022-11-20T01:06:18;16.95;;;7.90;;
75209;SDS011;63796;53.136;14.882;2022-11-20T01:08:55;17.90;;;7.47;;
75209;SDS011;63796;53.136;14.882;2022-11-20T01:11:28;17.75;;;7.55;;
75209;SDS011;63796;53.136;14.882;2022-11-20T01:14:00;6.37;;;3.17;;
75209;SDS011;63796;53.136;14.882;2022-11-20T01:16:31;7.55;;;3.45;;
75209;SDS011;63796;53.136;14.882;2022-11-20T01:19:01;3.45;;;1.95;;
75209;SDS011;63796;53.136;14.882;2022-11-20T01:21:33;1.80;;;1.40;;
75209;SDS011;63796;53.136;14.882;2022-11-20T01:24:06;2.08;;;1.25;;
75209;SDS011;63796;53.136;14.882;2022-11-20T01:26:37;3.22;;;2.10;;
75209;SDS011;63796;53.136;14.882;2022-11-20T01:29:05;3.72;;;1.95;;
75209;SDS011;63796;53.136;14.882;2022-11-20T01:31:35;3.70;;;2.05;;
75209;SDS011;63796;53.136;14.882;2022-11-20T01:34:04;3.30;;;2.37;;
75209;SDS011;63796;53.136;14.882;2022-11-20T01:36:35;6.95;;;3.08;;
75209;SDS011;63796;53.136;14.882;2022-11-20T01:39:11;4.47;;;2.47;;
75209;SDS011;63796;53.136;14.882;2022-11-20T01:41:41;8.80;;;2.90;;
75209;SDS011;63796;53.136;14.882;2022-11-20T01:44:43;2.58;;;1.42;;
75209;SDS011;63796;53.136;14.882;2022-11-20T01:47:22;1.93;;;1.33;;
75209;SDS011;63796;53.136;14.882;2022-11-20T01:50:03;3.15;;;1.70;;
75209;SDS011;63796;53.136;14.882;2022-11-20T01:52:42;2.37;;;1.75;;
75209;SDS011;63796;53.136;14.882;2022-11-20T01:55:18;2.67;;;1.42;;
75209;SDS011;63796;53.136;14.882;2022-11-20T01:57:49;2.00;;;1.52;;
75209;SDS011;63796;53.136;14.882;2022-11-20T02:00:17;1.67;;;1.00;;
75209;SDS011;63796;53.136;14.882;2022-11-20T02:02:48;2.47;;;1.40;;
75209;SDS011;63796;53.136;14.882;2022-11-20T02:08:13;2.27;;;1.22;;
75209;SDS011;63796;53.136;14.882;2022-11-20T02:13:15;2.87;;;1.50;;
75209;SDS011;63796;53.136;14.882;2022-11-20T02:16:01;3.12;;;1.87;;
75209;SDS011;63796;53.136;14.882;2022-11-20T02:18:29;1.60;;;1.20;;
75209;SDS011;63796;53.136;14.882;2022-11-20T02:21:02;3.17;;;1.47;;
75209;SDS011;63796;53.136;14.882;2022-11-20T02:26:38;1.87;;;1.30;;
75209;SDS011;63796;53.136;14.882;2022-11-20T02:29:08;3.05;;;1.90;;
75209;SDS011;63796;53.136;14.882;2022-11-20T02:31:36;2.90;;;1.92;;
75209;SDS011;63796;53.136;14.882;2022-11-20T02:34:05;2.60;;;1.62;;
75209;SDS011;63796;53.136;14.882;2022-11-20T02:36:33;14.65;;;5.53;;
75209;SDS011;63796;53.136;14.882;2022-11-20T02:39:03;4.23;;;2.00;;
75209;SDS011;63796;53.136;14.882;2022-11-20T02:41:35;2.85;;;1.92;;
75209;SDS011;63796;53.136;14.882;2022-11-20T02:44:00;2.52;;;1.60;;
75209;SDS011;63796;53.136;14.882;2022-11-20T02:46:28;5.58;;;2.55;;
75209;SDS011;63796;53.136;14.882;2022-11-20T02:48:55;5.10;;;2.52;;
75209;SDS011;63796;53.136;14.882;2022-11-20T02:51:22;8.63;;;3.40;;
75209;SDS011;63796;53.136;14.882;2022-11-20T02:53:49;14.07;;;4.95;;
75209;SDS011;63796;53.136;14.882;2022-11-20T02:56:16;10.82;;;2.98;;
75209;SDS011;63796;53.136;14.882;2022-11-20T02:58:43;5.83;;;2.45;;
75209;SDS011;63796;53.136;14.882;2022-11-20T03:01:09;2.35;;;1.60;;
75209;SDS011;63796;53.136;14.882;2022-11-20T03:03:36;2.07;;;1.40;;
75209;SDS011;63796;53.136;14.882;2022-11-20T03:06:03;1.70;;;1.60;;
75209;SDS011;63796;53.136;14.882;2022-11-20T03:08:31;3.95;;;1.67;;
75209;SDS011;63796;53.136;14.882;2022-11-20T03:11:02;6.12;;;2.37;;
75209;SDS011;63796;53.136;14.882;2022-11-20T03:13:33;3.70;;;2.37;;
75209;SDS011;63796;53.136;14.882;2022-11-20T03:16:05;21.20;;;6.10;;
75209;SDS011;63796;53.136;14.882;2022-11-20T03:18:39;5.58;;;2.15;;
75209;SDS011;63796;53.136;14.882;2022-11-20T03:21:08;6.05;;;2.47;;
75209;SDS011;63796;53.136;14.882;2022-11-20T03:23:36;2.58;;;1.67;;
75209;SDS011;63796;53.136;14.882;2022-11-20T03:26:08;2.95;;;1.40;;
75209;SDS011;63796;53.136;14.882;2022-11-20T03:28:48;19.63;;;5.80;;
75209;SDS011;63796;53.136;14.882;2022-11-20T03:31:18;4.12;;;2.15;;
75209;SDS011;63796;53.136;14.882;2022-11-20T03:33:49;3.02;;;2.10;;
75209;SDS011;63796;53.136;14.882;2022-11-20T03:36:16;5.20;;;2.75;;
75209;SDS011;63796;53.136;14.882;2022-11-20T03:38:45;11.18;;;4.15;;
75209;SDS011;63796;53.136;14.882;2022-11-20T03:41:14;23.83;;;6.90;;
75209;SDS011;63796;53.136;14.882;2022-11-20T03:43:59;48.98;;;14.98;;
75209;SDS011;63796;53.136;14.882;2022-11-20T03:46:28;7.83;;;3.72;;
75209;SDS011;63796;53.136;14.882;2022-11-20T03:48:56;15.48;;;6.03;;
75209;SDS011;63796;53.136;14.882;2022-11-20T03:51:26;4.12;;;2.00;;
75209;SDS011;63796;53.136;14.882;2022-11-20T03:54:00;3.13;;;1.90;;
75209;SDS011;63796;53.136;14.882;2022-11-20T03:56:31;2.67;;;1.90;;
75209;SDS011;63796;53.136;14.882;2022-11-20T03:59:01;2.37;;;1.95;;
75209;SDS011;63796;53.136;14.882;2022-11-20T04:01:33;3.40;;;2.10;;
75209;SDS011;63796;53.136;14.882;2022-11-20T04:04:03;2.25;;;2.00;;
75209;SDS011;63796;53.136;14.882;2022-11-20T04:06:33;2.23;;;1.80;;
75209;SDS011;63796;53.136;14.882;2022-11-20T04:09:04;3.35;;;2.40;;
75209;SDS011;63796;53.136;14.882;2022-11-20T04:11:33;3.52;;;2.33;;
75209;SDS011;63796;53.136;14.882;2022-11-20T04:14:03;3.85;;;2.30;;
75209;SDS011;63796;53.136;14.882;2022-11-20T04:16:34;4.03;;;2.50;;
75209;SDS011;63796;53.136;14.882;2022-11-20T04:19:03;4.43;;;2.40;;
75209;SDS011;63796;53.136;14.882;2022-11-20T04:21:33;3.00;;;2.33;;
75209;SDS011;63796;53.136;14.882;2022-11-20T04:24:00;2.98;;;2.12;;
75209;SDS011;63796;53.136;14.882;2022-11-20T04:26:28;3.98;;;2.40;;
75209;SDS011;63796;53.136;14.882;2022-11-20T04:28:56;4.05;;;2.70;;
75209;SDS011;63796;53.136;14.882;2022-11-20T04:31:24;3.47;;;2.33;;
75209;SDS011;63796;53.136;14.882;2022-11-20T04:33:54;3.83;;;2.40;;
75209;SDS011;63796;53.136;14.882;2022-11-20T04:36:22;3.33;;;2.42;;
75209;SDS011;63796;53.136;14.882;2022-11-20T04:39:02;4.28;;;2.70;;
75209;SDS011;63796;53.136;14.882;2022-11-20T04:41:34;3.12;;;2.33;;
75209;SDS011;63796;53.136;14.882;2022-11-20T04:44:02;3.97;;;2.63;;
75209;SDS011;63796;53.136;14.882;2022-11-20T04:46:31;4.30;;;2.95;;
75209;SDS011;63796;53.136;14.882;2022-11-20T04:49:04;3.75;;;2.60;;
75209;SDS011;63796;53.136;14.882;2022-11-20T04:51:32;3.83;;;3.08;;
75209;SDS011;63796;53.136;14.882;2022-11-20T04:54:00;4.67;;;3.62;;
75209;SDS011;63796;53.136;14.882;2022-11-20T04:56:27;6.10;;;2.97;;
75209;SDS011;63796;53.136;14.882;2022-11-20T04:58:54;5.15;;;3.30;;
75209;SDS011;63796;53.136;14.882;2022-11-20T05:01:21;6.65;;;3.80;;
75209;SDS011;63796;53.136;14.882;2022-11-20T05:03:50;5.60;;;3.80;;
75209;SDS011;63796;53.136;14.882;2022-11-20T05:06:18;6.72;;;3.65;;
75209;SDS011;63796;53.136;14.882;2022-11-20T05:08:50;5.27;;;3.73;;
75209;SDS011;63796;53.136;14.882;2022-11-20T05:11:18;4.33;;;3.37;;
75209;SDS011;63796;53.136;14.882;2022-11-20T05:13:47;5.45;;;3.77;;
75209;SDS011;63796;53.136;14.882;2022-11-20T05:16:17;5.12;;;3.10;;
75209;SDS011;63796;53.136;14.882;2022-11-20T05:18:46;5.08;;;3.50;;
75209;SDS011;63796;53.136;14.882;2022-11-20T05:21:14;4.30;;;3.10;;
75209;SDS011;63796;53.136;14.882;2022-11-20T05:23:42;5.42;;;3.67;;
75209;SDS011;63796;53.136;14.882;2022-11-20T05:26:18;4.65;;;3.42;;
75209;SDS011;63796;53.136;14.882;2022-11-20T05:28:44;4.00;;;2.90;;
75209;SDS011;63796;53.136;14.882;2022-11-20T05:31:14;6.20;;;3.50;;
75209;SDS011;63796;53.136;14.882;2022-11-20T05:33:44;5.10;;;3.80;;
75209;SDS011;63796;53.136;14.882;2022-11-20T05:36:12;4.80;;;3.37;;
75209;SDS011;63796;53.136;14.882;2022-11-20T05:38:40;5.83;;;3.62;;
75209;SDS011;63796;53.136;14.882;2022-11-20T05:43:40;7.55;;;4.85;;
75209;SDS011;63796;53.136;14.882;2022-11-20T05:46:10;8.13;;;4.43;;
75209;SDS011;63796;53.136;14.882;2022-11-20T05:48:40;5.97;;;3.62;;
75209;SDS011;63796;53.136;14.882;2022-11-20T05:51:13;6.17;;;4.10;;
75209;SDS011;63796;53.136;14.882;2022-11-20T05:53:43;8.10;;;4.75;;
75209;SDS011;63796;53.136;14.882;2022-11-20T05:56:11;6.20;;;4.50;;
75209;SDS011;63796;53.136;14.882;2022-11-20T05:58:41;6.33;;;4.60;;
75209;SDS011;63796;53.136;14.882;2022-11-20T06:01:09;7.62;;;4.83;;
75209;SDS011;63796;53.136;14.882;2022-11-20T06:03:49;7.62;;;4.67;;
75209;SDS011;63796;53.136;14.882;2022-11-20T06:06:17;9.55;;;4.95;;
75209;SDS011;63796;53.136;14.882;2022-11-20T06:08:45;7.83;;;4.78;;
75209;SDS011;63796;53.136;14.882;2022-11-20T06:11:12;7.93;;;4.77;;
75209;SDS011;63796;53.136;14.882;2022-11-20T06:13:41;8.78;;;5.25;;
75209;SDS011;63796;53.136;14.882;2022-11-20T06:16:10;9.18;;;5.28;;
75209;SDS011;63796;53.136;14.882;2022-11-20T06:18:40;7.30;;;4.80;;
75209;SDS011;63796;53.136;14.882;2022-11-20T06:21:08;9.30;;;5.35;;
75209;SDS011;63796;53.136;14.882;2022-11-20T06:23:38;8.97;;;5.40;;
75209;SDS011;63796;53.136;14.882;2022-11-20T06:26:07;7.80;;;5.15;;
75209;SDS011;63796;53.136;14.882;2022-11-20T06:28:36;8.88;;;5.50;;
75209;SDS011;63796;53.136;14.882;2022-11-20T06:31:04;8.90;;;5.47;;
75209;SDS011;63796;53.136;14.882;2022-11-20T06:33:32;10.20;;;5.45;;
75209;SDS011;63796;53.136;14.882;2022-11-20T06:36:00;9.27;;;5.50;;
75209;SDS011;63796;53.136;14.882;2022-11-20T06:38:27;7.60;;;4.78;;
75209;SDS011;63796;53.136;14.882;2022-11-20T06:40:54;9.80;;;5.83;;
75209;SDS011;63796;53.136;14.882;2022-11-20T06:43:22;9.85;;;5.08;;
75209;SDS011;63796;53.136;14.882;2022-11-20T06:45:53;10.20;;;5.45;;
75209;SDS011;63796;53.136;14.882;2022-11-20T06:48:21;8.60;;;5.53;;
75209;SDS011;63796;53.136;14.882;2022-11-20T06:50:49;8.03;;;5.05;;
75209;SDS011;63796;53.136;14.882;2022-11-20T06:53:16;8.60;;;5.30;;
75209;SDS011;63796;53.136;14.882;2022-11-20T06:55:44;7.85;;;5.60;;
75209;SDS011;63796;53.136;14.882;2022-11-20T06:58:13;9.10;;;5.53;;
75209;SDS011;63796;53.136;14.882;2022-11-20T07:00:41;8.40;;;5.10;;
75209;SDS011;63796;53.136;14.882;2022-11-20T07:03:11;8.35;;;5.12;;
75209;SDS011;63796;53.136;14.882;2022-11-20T07:05:38;9.25;;;5.85;;
75209;SDS011;63796;53.136;14.882;2022-11-20T07:08:06;9.30;;;5.65;;
75209;SDS011;63796;53.136;14.882;2022-11-20T07:10:33;8.48;;;5.30;;
75209;SDS011;63796;53.136;14.882;2022-11-20T07:13:00;7.67;;;5.07;;
75209;SDS011;63796;53.136;14.882;2022-11-20T07:15:27;8.85;;;5.67;;
75209;SDS011;63796;53.136;14.882;2022-11-20T07:17:54;10.90;;;5.70;;
75209;SDS011;63796;53.136;14.882;2022-11-20T07:20:21;9.20;;;5.00;;
75209;SDS011;63796;53.136;14.882;2022-11-20T07:22:52;9.15;;;5.80;;
75209;SDS011;63796;53.136;14.882;2022-11-20T07:25:21;8.23;;;5.40;;
75209;SDS011;63796;53.136;14.882;2022-11-20T07:27:50;10.82;;;6.22;;
75209;SDS011;63796;53.136;14.882;2022-11-20T07:30:17;9.88;;;5.80;;
75209;SDS011;63796;53.136;14.882;2022-11-20T07:32:47;9.13;;;6.08;;
75209;SDS011;63796;53.136;14.882;2022-11-20T07:35:20;9.83;;;5.90;;
75209;SDS011;63796;53.136;14.882;2022-11-20T07:37:47;10.23;;;5.60;;
75209;SDS011;63796;53.136;14.882;2022-11-20T07:40:15;10.30;;;6.10;;
75209;SDS011;63796;53.136;14.882;2022-11-20T07:42:49;10.38;;;6.00;;
75209;SDS011;63796;53.136;14.882;2022-11-20T07:45:19;10.98;;;5.83;;
75209;SDS011;63796;53.136;14.882;2022-11-20T07:47:47;10.63;;;6.33;;
75209;SDS011;63796;53.136;14.882;2022-11-20T07:50:14;10.93;;;6.43;;
75209;SDS011;63796;53.136;14.882;2022-11-20T07:52:42;11.38;;;6.55;;
75209;SDS011;63796;53.136;14.882;2022-11-20T07:55:11;11.08;;;6.65;;
75209;SDS011;63796;53.136;14.882;2022-11-20T07:57:38;11.33;;;6.58;;
75209;SDS011;63796;53.136;14.882;2022-11-20T08:00:06;12.35;;;7.08;;
75209;SDS011;63796;53.136;14.882;2022-11-20T08:02:39;13.73;;;6.77;;
75209;SDS011;63796;53.136;14.882;2022-11-20T08:05:08;11.60;;;7.08;;
75209;SDS011;63796;53.136;14.882;2022-11-20T08:07:39;10.88;;;6.75;;
75209;SDS011;63796;53.136;14.882;2022-11-20T08:10:10;11.00;;;6.58;;
75209;SDS011;63796;53.136;14.882;2022-11-20T08:12:46;11.73;;;6.62;;
75209;SDS011;63796;53.136;14.882;2022-11-20T08:15:34;12.30;;;6.77;;
75209;SDS011;63796;53.136;14.882;2022-11-20T08:20:39;10.75;;;6.35;;
75209;SDS011;63796;53.136;14.882;2022-11-20T08:23:07;11.18;;;6.47;;
75209;SDS011;63796;53.136;14.882;2022-11-20T08:25:34;13.32;;;7.72;;
75209;SDS011;63796;53.136;14.882;2022-11-20T08:28:04;11.90;;;6.90;;
75209;SDS011;63796;53.136;14.882;2022-11-20T08:30:34;11.65;;;7.12;;
75209;SDS011;63796;53.136;14.882;2022-11-20T08:33:07;12.60;;;7.00;;
75209;SDS011;63796;53.136;14.882;2022-11-20T08:35:34;13.58;;;7.65;;
75209;SDS011;63796;53.136;14.882;2022-11-20T08:38:02;10.65;;;6.37;;
75209;SDS011;63796;53.136;14.882;2022-11-20T08:40:30;11.57;;;6.63;;
75209;SDS011;63796;53.136;14.882;2022-11-20T08:42:57;10.55;;;6.12;;
75209;SDS011;63796;53.136;14.882;2022-11-20T08:45:24;12.88;;;7.62;;
75209;SDS011;63796;53.136;14.882;2022-11-20T08:47:51;12.18;;;7.17;;
75209;SDS011;63796;53.136;14.882;2022-11-20T08:50:18;10.82;;;6.40;;
75209;SDS011;63796;53.136;14.882;2022-11-20T08:52:45;12.03;;;6.70;;
75209;SDS011;63796;53.136;14.882;2022-11-20T08:55:12;12.30;;;7.12;;
75209;SDS011;63796;53.136;14.882;2022-11-20T08:57:39;12.07;;;7.28;;
75209;SDS011;63796;53.136;14.882;2022-11-20T09:00:06;11.20;;;6.10;;
75209;SDS011;63796;53.136;14.882;2022-11-20T09:02:34;10.50;;;6.20;;
75209;SDS011;63796;53.136;14.882;2022-11-20T09:05:01;11.03;;;6.17;;
75209;SDS011;63796;53.136;14.882;2022-11-20T09:07:29;11.15;;;6.53;;
75209;SDS011;63796;53.136;14.882;2022-11-20T09:09:56;12.65;;;6.40;;
75209;SDS011;63796;53.136;14.882;2022-11-20T09:12:23;11.68;;;6.83;;
75209;SDS011;63796;53.136;14.882;2022-11-20T09:14:50;11.40;;;6.40;;
75209;SDS011;63796;53.136;14.882;2022-11-20T09:17:17;10.37;;;6.63;;
75209;SDS011;63796;53.136;14.882;2022-11-20T09:19:46;12.03;;;7.37;;
75209;SDS011;63796;53.136;14.882;2022-11-20T09:22:13;12.85;;;7.50;;
75209;SDS011;63796;53.136;14.882;2022-11-20T09:24:39;12.20;;;6.75;;
75209;SDS011;63796;53.136;14.882;2022-11-20T09:27:07;13.88;;;7.25;;
75209;SDS011;63796;53.136;14.882;2022-11-20T09:29:34;15.33;;;8.00;;
75209;SDS011;63796;53.136;14.882;2022-11-20T09:32:01;12.20;;;6.97;;
75209;SDS011;63796;53.136;14.882;2022-11-20T09:34:28;11.78;;;6.92;;
75209;SDS011;63796;53.136;14.882;2022-11-20T09:36:55;13.85;;;7.87;;
75209;SDS011;63796;53.136;14.882;2022-11-20T09:39:22;11.83;;;7.42;;
75209;SDS011;63796;53.136;14.882;2022-11-20T09:41:53;13.20;;;7.20;;
75209;SDS011;63796;53.136;14.882;2022-11-20T09:50:44;13.22;;;7.85;;
75209;SDS011;63796;53.136;14.882;2022-11-20T09:56:37;13.87;;;7.73;;
75209;SDS011;63796;53.136;14.882;2022-11-20T09:59:14;15.05;;;8.10;;
75209;SDS011;63796;53.136;14.882;2022-11-20T10:05:02;15.75;;;9.00;;
75209;SDS011;63796;53.136;14.882;2022-11-20T10:10:33;16.13;;;8.90;;
75209;SDS011;63796;53.136;14.882;2022-11-20T10:15:38;14.68;;;8.43;;
75209;SDS011;63796;53.136;14.882;2022-11-20T10:18:16;16.20;;;9.48;;
75209;SDS011;63796;53.136;14.882;2022-11-20T10:21:03;14.25;;;8.48;;
75209;SDS011;63796;53.136;14.882;2022-11-20T10:26:39;17.57;;;8.75;;
75209;SDS011;63796;53.136;14.882;2022-11-20T10:29:19;16.77;;;8.83;;
75209;SDS011;63796;53.136;14.882;2022-11-20T10:31:44;14.13;;;8.80;;
75209;SDS011;63796;53.136;14.882;2022-11-20T10:34:31;32.30;;;15.30;;
75209;SDS011;63796;53.136;14.882;2022-11-20T10:37:06;24.70;;;12.37;;
75209;SDS011;63796;53.136;14.882;2022-11-20T10:39:47;16.23;;;9.68;;
75209;SDS011;63796;53.136;14.882;2022-11-20T10:48:26;16.15;;;8.68;;
75209;SDS011;63796;53.136;14.882;2022-11-20T10:50:35;17.27;;;10.70;;
75209;SDS011;63796;53.136;14.882;2022-11-20T10:55:58;15.68;;;8.83;;
75209;SDS011;63796;53.136;14.882;2022-11-20T11:01:22;14.23;;;8.68;;
75209;SDS011;63796;53.136;14.882;2022-11-20T11:03:54;13.07;;;8.37;;
75209;SDS011;63796;53.136;14.882;2022-11-20T11:06:36;14.45;;;7.85;;
75209;SDS011;63796;53.136;14.882;2022-11-20T11:09:12;14.58;;;8.98;;
75209;SDS011;63796;53.136;14.882;2022-11-20T11:11:41;13.68;;;8.45;;
75209;SDS011;63796;53.136;14.882;2022-11-20T11:14:10;14.47;;;8.33;;
75209;SDS011;63796;53.136;14.882;2022-11-20T11:16:54;16.90;;;8.93;;
75209;SDS011;63796;53.136;14.882;2022-11-20T11:19:23;13.08;;;7.85;;
75209;SDS011;63796;53.136;14.882;2022-11-20T11:21:54;12.95;;;7.47;;
75209;SDS011;63796;53.136;14.882;2022-11-20T11:29:23;14.27;;;7.67;;
75209;SDS011;63796;53.136;14.882;2022-11-20T11:32:02;12.28;;;7.95;;
75209;SDS011;63796;53.136;14.882;2022-11-20T11:34:31;12.35;;;7.92;;
75209;SDS011;63796;53.136;14.882;2022-11-20T11:36:59;14.58;;;7.53;;
75209;SDS011;63796;53.136;14.882;2022-11-20T11:39:29;14.07;;;7.75;;
75209;SDS011;63796;53.136;14.882;2022-11-20T11:41:59;13.63;;;8.07;;
75209;SDS011;63796;53.136;14.882;2022-11-20T11:44:28;14.83;;;8.35;;
75209;SDS011;63796;53.136;14.882;2022-11-20T11:52:46;14.83;;;8.28;;
75209;SDS011;63796;53.136;14.882;2022-11-20T11:55:26;13.00;;;8.23;;
75209;SDS011;63796;53.136;14.882;2022-11-20T12:00:31;15.40;;;9.15;;
75209;SDS011;63796;53.136;14.882;2022-11-20T12:03:04;16.32;;;8.83;;
75209;SDS011;63796;53.136;14.882;2022-11-20T12:05:45;14.58;;;8.98;;
75209;SDS011;63796;53.136;14.882;2022-11-20T12:16:18;15.98;;;9.63;;
75209;SDS011;63796;53.136;14.882;2022-11-20T12:18:48;29.20;;;14.05;;
75209;SDS011;63796;53.136;14.882;2022-11-20T12:21:30;14.23;;;8.83;;
75209;SDS011;63796;53.136;14.882;2022-11-20T12:24:15;15.75;;;9.55;;
75209;SDS011;63796;53.136;14.882;2022-11-20T12:29:54;17.62;;;8.83;;
75209;SDS011;63796;53.136;14.882;2022-11-20T12:41:19;13.95;;;7.58;;
75209;SDS011;63796;53.136;14.882;2022-11-20T12:47:28;14.73;;;7.92;;
75209;SDS011;63796;53.136;14.882;2022-11-20T13:05:24;15.40;;;8.10;;
75209;SDS011;63796;53.136;14.882;2022-11-20T13:08:00;19.02;;;8.60;;
75209;SDS011;63796;53.136;14.882;2022-11-20T13:10:45;18.80;;;9.05;;
75209;SDS011;63796;53.136;14.882;2022-11-20T13:14:19;14.53;;;8.48;;
75209;SDS011;63796;53.136;14.882;2022-11-20T13:18:39;18.23;;;9.37;;
75209;SDS011;63796;53.136;14.882;2022-11-20T13:21:19;18.67;;;9.53;;
75209;SDS011;63796;53.136;14.882;2022-11-20T13:23:51;16.37;;;8.05;;
75209;SDS011;63796;53.136;14.882;2022-11-20T13:26:19;18.70;;;8.90;;
75209;SDS011;63796;53.136;14.882;2022-11-20T13:28:58;16.60;;;7.90;;
75209;SDS011;63796;53.136;14.882;2022-11-20T13:31:33;13.70;;;8.07;;
75209;SDS011;63796;53.136;14.882;2022-11-20T13:34:03;15.98;;;8.85;;
75209;SDS011;63796;53.136;14.882;2022-11-20T13:36:32;17.77;;;8.93;;
75209;SDS011;63796;53.136;14.882;2022-11-20T13:39:00;17.52;;;9.38;;
75209;SDS011;63796;53.136;14.882;2022-11-20T13:41:32;17.75;;;8.70;;
75209;SDS011;63796;53.136;14.882;2022-11-20T13:46:47;14.87;;;8.15;;
75209;SDS011;63796;53.136;14.882;2022-11-20T13:49:20;16.48;;;9.48;;
75209;SDS011;63796;53.136;14.882;2022-11-20T13:51:47;18.27;;;9.38;;
75209;SDS011;63796;53.136;14.882;2022-11-20T14:00:13;16.12;;;8.55;;
75209;SDS011;63796;53.136;14.882;2022-11-20T14:05:46;16.40;;;8.78;;
75209;SDS011;63796;53.136;14.882;2022-11-20T14:08:23;17.55;;;8.25;;
75209;SDS011;63796;53.136;14.882;2022-11-20T14:10:51;20.13;;;10.07;;
75209;SDS011;63796;53.136;14.882;2022-11-20T14:16:34;17.98;;;9.55;;
75209;SDS011;63796;53.136;14.882;2022-11-20T14:21:54;17.32;;;9.25;;
75209;SDS011;63796;53.136;14.882;2022-11-20T14:24:41;15.80;;;8.70;;
75209;SDS011;63796;53.136;14.882;2022-11-20T14:27:18;19.20;;;9.80;;
75209;SDS011;63796;53.136;14.882;2022-11-20T14:29:47;18.48;;;9.35;;
75209;SDS011;63796;53.136;14.882;2022-11-20T14:32:17;14.05;;;8.08;;
75209;SDS011;63796;53.136;14.882;2022-11-20T14:34:46;15.72;;;8.85;;
75209;SDS011;63796;53.136;14.882;2022-11-20T14:37:23;14.77;;;7.87;;
75209;SDS011;63796;53.136;14.882;2022-11-20T14:39:55;13.13;;;7.60;;
75209;SDS011;63796;53.136;14.882;2022-11-20T14:42:25;15.18;;;7.65;;
75209;SDS011;63796;53.136;14.882;2022-11-20T14:44:55;17.52;;;8.83;;
75209;SDS011;63796;53.136;14.882;2022-11-20T14:47:26;15.98;;;9.38;;
75209;SDS011;63796;53.136;14.882;2022-11-20T14:49:55;17.03;;;8.53;;
75209;SDS011;63796;53.136;14.882;2022-11-20T14:52:26;19.48;;;9.50;;
75209;SDS011;63796;53.136;14.882;2022-11-20T14:54:54;22.50;;;11.18;;
75209;SDS011;63796;53.136;14.882;2022-11-20T15:02:45;18.77;;;8.67;;
75209;SDS011;63796;53.136;14.882;2022-11-20T15:05:15;15.53;;;8.53;;
75209;SDS011;63796;53.136;14.882;2022-11-20T15:07:46;16.50;;;8.60;;
75209;SDS011;63796;53.136;14.882;2022-11-20T15:10:23;16.93;;;8.83;;
75209;SDS011;63796;53.136;14.882;2022-11-20T15:12:54;15.95;;;8.25;;
75209;SDS011;63796;53.136;14.882;2022-11-20T15:15:29;15.60;;;8.73;;
75209;SDS011;63796;53.136;14.882;2022-11-20T15:18:00;16.23;;;8.30;;
75209;SDS011;63796;53.136;14.882;2022-11-20T15:20:28;13.78;;;7.33;;
75209;SDS011;63796;53.136;14.882;2022-11-20T15:22:59;22.73;;;11.22;;
75209;SDS011;63796;53.136;14.882;2022-11-20T15:25:25;45.55;;;20.43;;
75209;SDS011;63796;53.136;14.882;2022-11-20T15:27:56;33.93;;;17.07;;
75209;SDS011;63796;53.136;14.882;2022-11-20T15:30:23;18.62;;;10.13;;
75209;SDS011;63796;53.136;14.882;2022-11-20T15:32:51;14.30;;;7.95;;
75209;SDS011;63796;53.136;14.882;2022-11-20T15:35:18;51.70;;;21.35;;
75209;SDS011;63796;53.136;14.882;2022-11-20T15:37:45;24.55;;;11.63;;
75209;SDS011;63796;53.136;14.882;2022-11-20T15:40:11;52.53;;;24.97;;
75209;SDS011;63796;53.136;14.882;2022-11-20T15:42:38;24.98;;;13.68;;
75209;SDS011;63796;53.136;14.882;2022-11-20T15:45:07;59.15;;;29.98;;
75209;SDS011;63796;53.136;14.882;2022-11-20T15:47:35;37.63;;;16.95;;
75209;SDS011;63796;53.136;14.882;2022-11-20T15:50:02;55.95;;;23.80;;
75209;SDS011;63796;53.136;14.882;2022-11-20T15:52:29;38.40;;;17.20;;
75209;SDS011;63796;53.136;14.882;2022-11-20T15:54:56;52.13;;;24.67;;
75209;SDS011;63796;53.136;14.882;2022-11-20T15:57:23;27.32;;;13.83;;
75209;SDS011;63796;53.136;14.882;2022-11-20T15:59:50;35.92;;;16.65;;
75209;SDS011;63796;53.136;14.882;2022-11-20T16:02:17;34.70;;;17.07;;
75209;SDS011;63796;53.136;14.882;2022-11-20T16:04:44;22.80;;;10.63;;
75209;SDS011;63796;53.136;14.882;2022-11-20T16:07:11;60.40;;;28.52;;
75209;SDS011;63796;53.136;14.882;2022-11-20T16:09:39;92.42;;;38.78;;
75209;SDS011;63796;53.136;14.882;2022-11-20T16:12:07;81.20;;;38.38;;
75209;SDS011;63796;53.136;14.882;2022-11-20T16:14:37;61.65;;;27.65;;
75209;SDS011;63796;53.136;14.882;2022-11-20T16:17:22;63.27;;;27.13;;
75209;SDS011;63796;53.136;14.882;2022-11-20T16:19:51;69.53;;;31.12;;
75209;SDS011;63796;53.136;14.882;2022-11-20T16:22:18;75.57;;;34.85;;
75209;SDS011;63796;53.136;14.882;2022-11-20T16:24:45;89.32;;;35.85;;
75209;SDS011;63796;53.136;14.882;2022-11-20T16:27:12;41.28;;;17.42;;
75209;SDS011;63796;53.136;14.882;2022-11-20T16:29:38;54.37;;;21.30;;
75209;SDS011;63796;53.136;14.882;2022-11-20T16:32:05;85.40;;;36.73;;
75209;SDS011;63796;53.136;14.882;2022-11-20T16:34:32;23.18;;;10.75;;
75209;SDS011;63796;53.136;14.882;2022-11-20T16:36:59;70.12;;;28.45;;
75209;SDS011;63796;53.136;14.882;2022-11-20T16:39:26;77.27;;;33.33;;
75209;SDS011;63796;53.136;14.882;2022-11-20T16:41:53;113.83;;;42.13;;
75209;SDS011;63796;53.136;14.882;2022-11-20T16:44:20;58.13;;;21.52;;
75209;SDS011;63796;53.136;14.882;2022-11-20T16:46:47;72.40;;;24.32;;
75209;SDS011;63796;53.136;14.882;2022-11-20T16:49:16;139.95;;;55.80;;
75209;SDS011;63796;53.136;14.882;2022-11-20T16:51:43;61.08;;;28.52;;